sensor_id;sensor_type;location;lat;lon;timestamp;temperature;humidity
31619;DHT22;18230;51.502;7.108;2023-05-07T00:02:11;16.30;99.90
31619;DHT22;18230;51.502;7.108;2023-05-07T00:07:12;16.30;99.90
31619;DHT22;18230;51.502;7.108;2023-05-07T00:12:12;16.30;99.90
31619;DHT22;18230;51.502;7.108;2023-05-07T00:17:13;16.30;99.90
31619;DHT22;18230;51.502;7.108;2023-05-07T00:22:14;16.30;99.90
31619;DHT22;18230;51.502;7.108;2023-05-07T00:27:15;16.20;99.90
31619;DHT22;18230;51.502;7.108;2023-05-07T00:32:16;16.20;99.90
31619;DHT22;18230;51.502;7.108;2023-05-07T00:37:16;16.20;99.90
31619;DHT22;18230;51.502;7.108;2023-05-07T00:42:17;16.10;99.90
31619;DHT22;18230;51.502;7.108;2023-05-07T00:47:18;16.00;99.90
31619;DHT22;18230;51.502;7.108;2023-05-07T00:52:21;15.90;99.90
31619;DHT22;18230;51.502;7.108;2023-05-07T00:57:25;15.90;99.90
31619;DHT22;18230;51.502;7.108;2023-05-07T01:02:26;15.80;99.90
31619;DHT22;18230;51.502;7.108;2023-05-07T01:07:27;15.80;99.90
31619;DHT22;18230;51.502;7.108;2023-05-07T01:12:28;15.80;99.90
31619;DHT22;18230;51.502;7.108;2023-05-07T01:17:34;15.80;99.90
31619;DHT22;18230;51.502;7.108;2023-05-07T01:22:37;15.70;99.90
31619;DHT22;18230;51.502;7.108;2023-05-07T01:27:37;15.70;99.90
31619;DHT22;18230;51.502;7.108;2023-05-07T01:33:01;15.70;99.90
31619;DHT22;18230;51.502;7.108;2023-05-07T01:38:04;15.70;99.90
31619;DHT22;18230;51.502;7.108;2023-05-07T01:43:06;15.60;99.90
31619;DHT22;18230;51.502;7.108;2023-05-07T01:48:09;15.60;99.90
31619;DHT22;18230;51.502;7.108;2023-05-07T01:53:10;15.60;99.90
31619;DHT22;18230;51.502;7.108;2023-05-07T01:58:11;15.50;99.90
31619;DHT22;18230;51.502;7.108;2023-05-07T02:03:12;15.50;99.90
31619;DHT22;18230;51.502;7.108;2023-05-07T02:08:12;15.50;99.90
31619;DHT22;18230;51.502;7.108;2023-05-07T02:13:13;15.50;99.90
31619;DHT22;18230;51.502;7.108;2023-05-07T02:18:14;15.40;99.90
31619;DHT22;18230;51.502;7.108;2023-05-07T02:23:14;15.50;99.90
31619;DHT22;18230;51.502;7.108;2023-05-07T02:28:15;15.40;99.90
31619;DHT22;18230;51.502;7.108;2023-05-07T02:33:16;15.40;99.90
31619;DHT22;18230;51.502;7.108;2023-05-07T02:38:17;15.30;99.90
31619;DHT22;18230;51.502;7.108;2023-05-07T02:43:17;15.30;99.90
31619;DHT22;18230;51.502;7.108;2023-05-07T02:48:18;15.30;99.90
31619;DHT22;18230;51.502;7.108;2023-05-07T02:53:19;15.20;99.90
31619;DHT22;18230;51.502;7.108;2023-05-07T02:58:20;15.20;99.90
31619;DHT22;18230;51.502;7.108;2023-05-07T03:03:21;15.20;99.90
31619;DHT22;18230;51.502;7.108;2023-05-07T03:08:22;15.20;99.90
31619;DHT22;18230;51.502;7.108;2023-05-07T03:13:22;15.10;99.90
31619;DHT22;18230;51.502;7.108;2023-05-07T03:18:23;15.10;99.90
31619;DHT22;18230;51.502;7.108;2023-05-07T03:23:24;15.10;99.90
31619;DHT22;18230;51.502;7.108;2023-05-07T03:28:25;15.00;99.90
31619;DHT22;18230;51.502;7.108;2023-05-07T03:33:25;15.00;99.90
31619;DHT22;18230;51.502;7.108;2023-05-07T03:38:27;15.00;99.90
31619;DHT22;18230;51.502;7.108;2023-05-07T03:43:28;15.00;99.90
31619;DHT22;18230;51.502;7.108;2023-05-07T03:48:29;14.90;99.90
31619;DHT22;18230;51.502;7.108;2023-05-07T03:53:29;14.90;99.90
31619;DHT22;18230;51.502;7.108;2023-05-07T03:58:30;14.90;99.90
31619;DHT22;18230;51.502;7.108;2023-05-07T04:03:31;14.90;99.90
31619;DHT22;18230;51.502;7.108;2023-05-07T04:08:32;14.80;99.90
31619;DHT22;18230;51.502;7.108;2023-05-07T04:13:32;14.80;99.90
31619;DHT22;18230;51.502;7.108;2023-05-07T04:18:33;14.80;99.90
31619;DHT22;18230;51.502;7.108;2023-05-07T04:23:34;14.70;99.90
31619;DHT22;18230;51.502;7.108;2023-05-07T04:28:35;14.70;99.90
31619;DHT22;18230;51.502;7.108;2023-05-07T04:33:36;14.70;99.90
31619;DHT22;18230;51.502;7.108;2023-05-07T04:38:36;14.70;99.90
31619;DHT22;18230;51.502;7.108;2023-05-07T04:43:37;14.70;99.90
31619;DHT22;18230;51.502;7.108;2023-05-07T04:48:38;14.80;99.90
31619;DHT22;18230;51.502;7.108;2023-05-07T04:53:39;14.80;99.90
31619;DHT22;18230;51.502;7.108;2023-05-07T04:58:40;14.90;99.90
31619;DHT22;18230;51.502;7.108;2023-05-07T05:03:40;15.00;99.90
31619;DHT22;18230;51.502;7.108;2023-05-07T05:08:41;15.10;99.90
31619;DHT22;18230;51.502;7.108;2023-05-07T05:13:42;15.20;99.90
31619;DHT22;18230;51.502;7.108;2023-05-07T05:18:43;15.20;99.90
31619;DHT22;18230;51.502;7.108;2023-05-07T05:23:44;15.30;99.90
31619;DHT22;18230;51.502;7.108;2023-05-07T05:28:44;15.40;99.90
31619;DHT22;18230;51.502;7.108;2023-05-07T05:33:45;15.40;99.90
31619;DHT22;18230;51.502;7.108;2023-05-07T05:38:46;15.60;99.90
31619;DHT22;18230;51.502;7.108;2023-05-07T05:43:46;15.70;99.90
31619;DHT22;18230;51.502;7.108;2023-05-07T05:48:47;16.10;99.90
31619;DHT22;18230;51.502;7.108;2023-05-07T05:53:48;16.20;99.90
31619;DHT22;18230;51.502;7.108;2023-05-07T05:58:49;16.30;99.90
31619;DHT22;18230;51.502;7.108;2023-05-07T06:03:49;16.40;99.90
31619;DHT22;18230;51.502;7.108;2023-05-07T06:08:50;16.60;99.90
31619;DHT22;18230;51.502;7.108;2023-05-07T06:13:51;16.60;99.90
31619;DHT22;18230;51.502;7.108;2023-05-07T06:18:52;16.70;99.90
31619;DHT22;18230;51.502;7.108;2023-05-07T06:23:52;16.80;99.90
31619;DHT22;18230;51.502;7.108;2023-05-07T06:28:55;16.90;99.90
31619;DHT22;18230;51.502;7.108;2023-05-07T06:33:55;17.00;99.90
31619;DHT22;18230;51.502;7.108;2023-05-07T06:38:56;17.10;99.90
31619;DHT22;18230;51.502;7.108;2023-05-07T06:43:57;17.10;99.90
31619;DHT22;18230;51.502;7.108;2023-05-07T06:48:58;17.30;99.90
31619;DHT22;18230;51.502;7.108;2023-05-07T06:54:00;17.40;99.90
31619;DHT22;18230;51.502;7.108;2023-05-07T06:59:02;17.30;99.90
31619;DHT22;18230;51.502;7.108;2023-05-07T07:04:03;17.20;99.90
31619;DHT22;18230;51.502;7.108;2023-05-07T07:09:03;17.30;99.90
31619;DHT22;18230;51.502;7.108;2023-05-07T07:14:05;17.50;99.90
31619;DHT22;18230;51.502;7.108;2023-05-07T07:19:05;17.70;99.90
31619;DHT22;18230;51.502;7.108;2023-05-07T07:24:06;17.90;99.90
31619;DHT22;18230;51.502;7.108;2023-05-07T07:29:07;17.80;99.90
31619;DHT22;18230;51.502;7.108;2023-05-07T07:34:07;17.80;99.90
31619;DHT22;18230;51.502;7.108;2023-05-07T07:39:08;17.90;99.90
31619;DHT22;18230;51.502;7.108;2023-05-07T07:44:09;18.00;99.90
31619;DHT22;18230;51.502;7.108;2023-05-07T07:49:13;18.10;99.90
31619;DHT22;18230;51.502;7.108;2023-05-07T07:54:14;18.30;99.90
31619;DHT22;18230;51.502;7.108;2023-05-07T07:59:15;18.40;99.90
31619;DHT22;18230;51.502;7.108;2023-05-07T08:04:19;18.50;99.90
31619;DHT22;18230;51.502;7.108;2023-05-07T08:09:20;18.60;99.90
31619;DHT22;18230;51.502;7.108;2023-05-07T08:14:20;18.70;99.90
31619;DHT22;18230;51.502;7.108;2023-05-07T08:19:21;18.80;99.90
31619;DHT22;18230;51.502;7.108;2023-05-07T08:24:22;18.70;99.90
31619;DHT22;18230;51.502;7.108;2023-05-07T08:29:23;18.90;99.90
31619;DHT22;18230;51.502;7.108;2023-05-07T08:34:24;19.10;99.90
31619;DHT22;18230;51.502;7.108;2023-05-07T08:39:24;19.00;99.90
31619;DHT22;18230;51.502;7.108;2023-05-07T08:44:26;19.10;99.90
31619;DHT22;18230;51.502;7.108;2023-05-07T08:49:30;19.30;99.90
31619;DHT22;18230;51.502;7.108;2023-05-07T08:54:31;19.70;99.90
31619;DHT22;18230;51.502;7.108;2023-05-07T08:59:32;19.70;99.90
31619;DHT22;18230;51.502;7.108;2023-05-07T09:04:33;19.60;99.90
31619;DHT22;18230;51.502;7.108;2023-05-07T09:09:34;19.60;99.90
31619;DHT22;18230;51.502;7.108;2023-05-07T09:14:35;19.60;99.90
31619;DHT22;18230;51.502;7.108;2023-05-07T09:19:35;19.70;99.90
31619;DHT22;18230;51.502;7.108;2023-05-07T09:24:37;19.90;99.90
31619;DHT22;18230;51.502;7.108;2023-05-07T09:29:38;20.20;99.90
31619;DHT22;18230;51.502;7.108;2023-05-07T09:34:39;20.50;99.90
31619;DHT22;18230;51.502;7.108;2023-05-07T09:39:40;20.90;99.90
31619;DHT22;18230;51.502;7.108;2023-05-07T09:44:43;21.20;99.90
31619;DHT22;18230;51.502;7.108;2023-05-07T09:49:47;21.10;99.90
31619;DHT22;18230;51.502;7.108;2023-05-07T09:54:48;21.20;99.90
31619;DHT22;18230;51.502;7.108;2023-05-07T09:59:52;21.20;99.90
31619;DHT22;18230;51.502;7.108;2023-05-07T10:04:54;21.50;99.90
31619;DHT22;18230;51.502;7.108;2023-05-07T10:09:56;21.60;99.90
31619;DHT22;18230;51.502;7.108;2023-05-07T10:14:58;21.70;99.90
31619;DHT22;18230;51.502;7.108;2023-05-07T10:19:58;21.80;99.90
31619;DHT22;18230;51.502;7.108;2023-05-07T10:25:01;21.50;99.90
31619;DHT22;18230;51.502;7.108;2023-05-07T10:35:22;21.40;99.90
31619;DHT22;18230;51.502;7.108;2023-05-07T10:40:24;21.40;99.90
31619;DHT22;18230;51.502;7.108;2023-05-07T10:45:25;21.60;99.90
31619;DHT22;18230;51.502;7.108;2023-05-07T10:50:26;21.70;99.90
31619;DHT22;18230;51.502;7.108;2023-05-07T10:55:27;21.70;99.90
31619;DHT22;18230;51.502;7.108;2023-05-07T11:05:32;21.90;99.90
31619;DHT22;18230;51.502;7.108;2023-05-07T11:10:56;22.20;99.90
31619;DHT22;18230;51.502;7.108;2023-05-07T11:15:57;22.50;99.90
31619;DHT22;18230;51.502;7.108;2023-05-07T11:20:59;22.30;99.90
31619;DHT22;18230;51.502;7.108;2023-05-07T11:31:01;22.50;99.90
31619;DHT22;18230;51.502;7.108;2023-05-07T11:36:03;22.60;99.90
31619;DHT22;18230;51.502;7.108;2023-05-07T11:41:05;22.60;99.90
31619;DHT22;18230;51.502;7.108;2023-05-07T11:46:11;22.60;99.90
31619;DHT22;18230;51.502;7.108;2023-05-07T11:51:12;22.50;99.90
31619;DHT22;18230;51.502;7.108;2023-05-07T11:56:15;22.50;99.90
31619;DHT22;18230;51.502;7.108;2023-05-07T12:01:16;22.70;99.90
31619;DHT22;18230;51.502;7.108;2023-05-07T12:06:17;23.20;99.90
31619;DHT22;18230;51.502;7.108;2023-05-07T12:11:25;23.30;99.90
31619;DHT22;18230;51.502;7.108;2023-05-07T12:16:26;23.00;99.90
31619;DHT22;18230;51.502;7.108;2023-05-07T12:21:27;23.10;99.90
31619;DHT22;18230;51.502;7.108;2023-05-07T12:26:28;23.20;99.90
31619;DHT22;18230;51.502;7.108;2023-05-07T12:31:29;23.10;99.90
31619;DHT22;18230;51.502;7.108;2023-05-07T12:36:38;23.10;99.90
31619;DHT22;18230;51.502;7.108;2023-05-07T12:46:55;23.10;99.90
31619;DHT22;18230;51.502;7.108;2023-05-07T12:51:56;22.90;99.90
31619;DHT22;18230;51.502;7.108;2023-05-07T12:57:09;22.80;99.90
31619;DHT22;18230;51.502;7.108;2023-05-07T13:02:10;22.70;99.90
31619;DHT22;18230;51.502;7.108;2023-05-07T13:07:11;22.60;99.90
31619;DHT22;18230;51.502;7.108;2023-05-07T13:12:12;22.40;99.90
31619;DHT22;18230;51.502;7.108;2023-05-07T13:17:12;22.40;99.90
31619;DHT22;18230;51.502;7.108;2023-05-07T13:22:13;22.40;99.90
31619;DHT22;18230;51.502;7.108;2023-05-07T13:27:14;22.30;99.90
31619;DHT22;18230;51.502;7.108;2023-05-07T13:32:15;22.10;99.90
31619;DHT22;18230;51.502;7.108;2023-05-07T13:37:16;22.00;99.90
31619;DHT22;18230;51.502;7.108;2023-05-07T13:42:17;21.80;99.90
31619;DHT22;18230;51.502;7.108;2023-05-07T13:47:18;21.70;99.90
31619;DHT22;18230;51.502;7.108;2023-05-07T13:52:19;21.60;99.90
31619;DHT22;18230;51.502;7.108;2023-05-07T13:57:20;21.50;99.90
31619;DHT22;18230;51.502;7.108;2023-05-07T14:02:21;21.50;99.90
31619;DHT22;18230;51.502;7.108;2023-05-07T14:07:22;21.40;99.90
31619;DHT22;18230;51.502;7.108;2023-05-07T14:12:23;21.40;99.90
31619;DHT22;18230;51.502;7.108;2023-05-07T14:17:24;21.40;99.90
31619;DHT22;18230;51.502;7.108;2023-05-07T14:22:26;21.40;99.90
31619;DHT22;18230;51.502;7.108;2023-05-07T14:27:27;21.30;99.90
31619;DHT22;18230;51.502;7.108;2023-05-07T14:32:28;21.40;99.90
31619;DHT22;18230;51.502;7.108;2023-05-07T14:37:28;21.30;99.90
31619;DHT22;18230;51.502;7.108;2023-05-07T14:42:29;21.30;99.90
31619;DHT22;18230;51.502;7.108;2023-05-07T14:47:30;21.20;99.90
31619;DHT22;18230;51.502;7.108;2023-05-07T14:52:31;21.10;99.90
31619;DHT22;18230;51.502;7.108;2023-05-07T14:57:32;21.00;99.90
31619;DHT22;18230;51.502;7.108;2023-05-07T15:02:35;21.00;99.90
31619;DHT22;18230;51.502;7.108;2023-05-07T15:07:36;21.00;99.90
31619;DHT22;18230;51.502;7.108;2023-05-07T15:12:37;20.90;99.90
31619;DHT22;18230;51.502;7.108;2023-05-07T15:17:38;20.90;99.90
31619;DHT22;18230;51.502;7.108;2023-05-07T15:22:38;21.00;99.90
31619;DHT22;18230;51.502;7.108;2023-05-07T15:27:39;21.00;99.90
31619;DHT22;18230;51.502;7.108;2023-05-07T15:32:41;21.00;99.90
31619;DHT22;18230;51.502;7.108;2023-05-07T15:37:42;21.10;99.90
31619;DHT22;18230;51.502;7.108;2023-05-07T15:42:44;21.10;99.90
31619;DHT22;18230;51.502;7.108;2023-05-07T15:47:45;21.20;99.90
31619;DHT22;18230;51.502;7.108;2023-05-07T15:52:46;21.20;99.90
31619;DHT22;18230;51.502;7.108;2023-05-07T15:57:47;21.20;99.90
31619;DHT22;18230;51.502;7.108;2023-05-07T16:02:48;21.20;99.90
31619;DHT22;18230;51.502;7.108;2023-05-07T16:07:49;21.20;99.90
31619;DHT22;18230;51.502;7.108;2023-05-07T16:12:49;21.30;99.90
31619;DHT22;18230;51.502;7.108;2023-05-07T16:17:50;21.50;99.90
31619;DHT22;18230;51.502;7.108;2023-05-07T16:22:51;21.60;99.90
31619;DHT22;18230;51.502;7.108;2023-05-07T16:27:52;21.50;99.90
31619;DHT22;18230;51.502;7.108;2023-05-07T16:32:54;21.40;99.90
31619;DHT22;18230;51.502;7.108;2023-05-07T16:37:55;21.30;99.90
31619;DHT22;18230;51.502;7.108;2023-05-07T16:42:55;21.20;99.90
31619;DHT22;18230;51.502;7.108;2023-05-07T16:47:56;21.10;99.90
31619;DHT22;18230;51.502;7.108;2023-05-07T16:52:58;21.00;99.90
31619;DHT22;18230;51.502;7.108;2023-05-07T16:57:58;20.90;99.90
31619;DHT22;18230;51.502;7.108;2023-05-07T17:02:59;20.80;99.90
31619;DHT22;18230;51.502;7.108;2023-05-07T17:08:00;20.80;99.90
31619;DHT22;18230;51.502;7.108;2023-05-07T17:13:01;20.80;99.90
31619;DHT22;18230;51.502;7.108;2023-05-07T17:18:01;20.80;99.90
31619;DHT22;18230;51.502;7.108;2023-05-07T17:23:02;20.70;99.90
31619;DHT22;18230;51.502;7.108;2023-05-07T17:28:03;20.60;99.90
31619;DHT22;18230;51.502;7.108;2023-05-07T17:33:04;20.60;99.90
31619;DHT22;18230;51.502;7.108;2023-05-07T17:38:05;20.60;99.90
31619;DHT22;18230;51.502;7.108;2023-05-07T17:43:06;20.50;99.90
31619;DHT22;18230;51.502;7.108;2023-05-07T17:48:07;20.50;99.90
31619;DHT22;18230;51.502;7.108;2023-05-07T17:53:08;20.40;99.90
31619;DHT22;18230;51.502;7.108;2023-05-07T17:58:13;20.40;99.90
31619;DHT22;18230;51.502;7.108;2023-05-07T18:03:14;20.40;99.90
31619;DHT22;18230;51.502;7.108;2023-05-07T18:08:15;20.30;99.90
31619;DHT22;18230;51.502;7.108;2023-05-07T18:13:15;20.20;99.90
31619;DHT22;18230;51.502;7.108;2023-05-07T18:18:16;20.20;99.90
31619;DHT22;18230;51.502;7.108;2023-05-07T18:23:18;20.20;99.90
31619;DHT22;18230;51.502;7.108;2023-05-07T18:28:19;20.20;99.90
31619;DHT22;18230;51.502;7.108;2023-05-07T18:33:20;20.10;99.90
31619;DHT22;18230;51.502;7.108;2023-05-07T18:38:20;20.00;99.90
31619;DHT22;18230;51.502;7.108;2023-05-07T18:43:21;19.90;99.90
31619;DHT22;18230;51.502;7.108;2023-05-07T18:48:22;19.90;99.90
31619;DHT22;18230;51.502;7.108;2023-05-07T18:53:22;19.80;99.90
31619;DHT22;18230;51.502;7.108;2023-05-07T18:58:23;19.70;99.90
31619;DHT22;18230;51.502;7.108;2023-05-07T19:03:24;19.60;99.90
31619;DHT22;18230;51.502;7.108;2023-05-07T19:08:25;19.50;99.90
31619;DHT22;18230;51.502;7.108;2023-05-07T19:13:26;19.40;99.90
31619;DHT22;18230;51.502;7.108;2023-05-07T19:18:26;19.30;99.90
31619;DHT22;18230;51.502;7.108;2023-05-07T19:23:29;19.30;99.90
31619;DHT22;18230;51.502;7.108;2023-05-07T19:28:30;19.20;99.90
31619;DHT22;18230;51.502;7.108;2023-05-07T19:33:30;19.10;99.90
31619;DHT22;18230;51.502;7.108;2023-05-07T19:38:31;19.10;99.90
31619;DHT22;18230;51.502;7.108;2023-05-07T19:43:32;18.90;99.90
31619;DHT22;18230;51.502;7.108;2023-05-07T19:48:37;18.80;99.90
31619;DHT22;18230;51.502;7.108;2023-05-07T19:53:38;18.80;99.90
31619;DHT22;18230;51.502;7.108;2023-05-07T19:58:39;18.70;99.90
31619;DHT22;18230;51.502;7.108;2023-05-07T20:03:40;18.60;99.90
31619;DHT22;18230;51.502;7.108;2023-05-07T20:08:41;18.50;99.90
31619;DHT22;18230;51.502;7.108;2023-05-07T20:13:44;18.40;99.90
31619;DHT22;18230;51.502;7.108;2023-05-07T20:18:45;18.40;99.90
31619;DHT22;18230;51.502;7.108;2023-05-07T20:23:46;18.30;99.90
31619;DHT22;18230;51.502;7.108;2023-05-07T20:28:46;18.30;99.90
31619;DHT22;18230;51.502;7.108;2023-05-07T20:33:47;18.20;99.90
31619;DHT22;18230;51.502;7.108;2023-05-07T20:38:48;18.20;99.90
31619;DHT22;18230;51.502;7.108;2023-05-07T20:43:49;18.10;99.90
31619;DHT22;18230;51.502;7.108;2023-05-07T20:48:50;18.10;99.90
31619;DHT22;18230;51.502;7.108;2023-05-07T20:53:51;18.00;99.90
31619;DHT22;18230;51.502;7.108;2023-05-07T20:58:51;18.10;99.90
31619;DHT22;18230;51.502;7.108;2023-05-07T21:03:52;17.90;99.90
31619;DHT22;18230;51.502;7.108;2023-05-07T21:08:53;17.90;99.90
31619;DHT22;18230;51.502;7.108;2023-05-07T21:13:54;17.70;99.90
31619;DHT22;18230;51.502;7.108;2023-05-07T21:18:55;17.80;99.90
31619;DHT22;18230;51.502;7.108;2023-05-07T21:23:56;17.70;99.90
31619;DHT22;18230;51.502;7.108;2023-05-07T21:28:57;17.70;99.90
31619;DHT22;18230;51.502;7.108;2023-05-07T21:33:57;17.50;99.90
31619;DHT22;18230;51.502;7.108;2023-05-07T21:38:58;17.50;99.90
31619;DHT22;18230;51.502;7.108;2023-05-07T21:43:59;17.50;99.90
31619;DHT22;18230;51.502;7.108;2023-05-07T21:49:00;17.40;99.90
31619;DHT22;18230;51.502;7.108;2023-05-07T21:54:00;17.40;99.90
31619;DHT22;18230;51.502;7.108;2023-05-07T21:59:01;17.30;99.90
31619;DHT22;18230;51.502;7.108;2023-05-07T22:04:02;17.30;99.90
31619;DHT22;18230;51.502;7.108;2023-05-07T22:09:03;17.20;99.90
31619;DHT22;18230;51.502;7.108;2023-05-07T22:14:04;17.20;99.90
31619;DHT22;18230;51.502;7.108;2023-05-07T22:19:05;17.10;99.90
31619;DHT22;18230;51.502;7.108;2023-05-07T22:24:06;17.00;99.90
31619;DHT22;18230;51.502;7.108;2023-05-07T22:29:07;17.00;99.90
31619;DHT22;18230;51.502;7.108;2023-05-07T22:34:08;17.00;99.90
31619;DHT22;18230;51.502;7.108;2023-05-07T22:39:08;16.90;99.90
31619;DHT22;18230;51.502;7.108;2023-05-07T22:44:10;17.00;99.90
31619;DHT22;18230;51.502;7.108;2023-05-07T22:49:10;17.00;99.90
31619;DHT22;18230;51.502;7.108;2023-05-07T22:54:11;16.90;99.90
31619;DHT22;18230;51.502;7.108;2023-05-07T22:59:12;16.90;99.90
31619;DHT22;18230;51.502;7.108;2023-05-07T23:04:13;16.80;99.90
31619;DHT22;18230;51.502;7.108;2023-05-07T23:09:14;16.80;99.90
31619;DHT22;18230;51.502;7.108;2023-05-07T23:14:14;16.70;99.90
31619;DHT22;18230;51.502;7.108;2023-05-07T23:19:15;16.70;99.90
31619;DHT22;18230;51.502;7.108;2023-05-07T23:24:16;16.60;99.90
31619;DHT22;18230;51.502;7.108;2023-05-07T23:29:17;16.60;99.90
31619;DHT22;18230;51.502;7.108;2023-05-07T23:34:17;16.60;99.90
31619;DHT22;18230;51.502;7.108;2023-05-07T23:39:23;16.50;99.90
31619;DHT22;18230;51.502;7.108;2023-05-07T23:44:23;16.40;99.90
31619;DHT22;18230;51.502;7.108;2023-05-07T23:49:25;16.40;99.90
31619;DHT22;18230;51.502;7.108;2023-05-07T23:54:26;16.30;99.90
31619;DHT22;18230;51.502;7.108;2023-05-07T23:59:27;16.30;99.90
